Thornhill, United Kingdom
Current Conditions -  °F | °C
As of 2:50 PM on Tuesday 21 Oct 2014 (Local Time) from EGPK Reporting Station
Rain Showers Rain Showers  
Wind Chill: 40°   Ceiling: Unl
Heat Index: 48°   Visibility: 6mi
Dew Point: 36°   Wind: 30mph
Humidity: 62%   Direction: 300°WNW
Pressure: 29.68"   Gusts: 47mph
Location:  55.23°N, 3.77°W
Report Text: EGPK 211350Z 30026G41KT 9999 VCSH FEW020CB SCT030 09/02 Q1005
Loading
Personal Weather Stations






























Interactive Weather Map
Tropical Storm Tracking
New forecast layout! Learn more

10-Day Weather Forecast

Advertisements
Track Severe Weather on mobile